Big Bear Station Historical Data
Daily Summary for March 5, 2019 Units:  English    Metric   Both
Next Day »
Daily Weekly Monthly Yearly Custom
  High: Low: Average:
Temperature: 54.7 °F 25.2 °F 40 °F
Dew Point: 40.7 °F 6.4 °F 24.5 °F
Humidity: 95% 20% 58%
Wind Speed: 9.4mph 0.0mph 1.8mph
Wind Gust: -999.0mph - -
Wind- - WSW
Pressure: 23.51 in 23.38 in -
Precipitation: 0.20 in    
Historical Graphs
 
 
Tabular Data for March 5, 2019
Time Temperature Dew Point Pressure Wind Wind Speed Wind Gust Humidity Rainfall Rate (Hourly)
00:05 26.6 °F 17.8 °F 23.47 in Calm   -999.0 mph 69% 0.00 in
00:20 26.1 °F 19.3 °F 23.47 in Calm   -999.0 mph 75% 0.00 in
00:35 26.4 °F 17.6 °F 23.47 in Calm   -999.0 mph 69% 0.00 in
00:50 26.1 °F 16.3 °F 23.48 in Calm   -999.0 mph 66% 0.00 in
01:05 25.3 °F 16.9 °F 23.48 in Calm   -999.0 mph 70% 0.00 in
01:21 25.2 °F 18.4 °F 23.48 in Calm   -999.0 mph 75% 0.00 in
01:36 25.7 °F 16.9 °F 23.48 in Calm   -999.0 mph 69% 0.00 in
01:51 25.5 °F 16.1 °F 23.47 in Calm   -999.0 mph 67% 0.00 in
02:06 26.8 °F 15.9 °F 23.47 in Calm   -999.0 mph 63% 0.00 in
02:22 27.1 °F 16.5 °F 23.48 in Calm   -999.0 mph 64% 0.00 in
02:37 26.2 °F 15.7 °F 23.47 in Calm   -999.0 mph 64% 0.00 in
02:53 26.2 °F 20.3 °F 23.46 in Calm   -999.0 mph 78% 0.00 in
03:08 26.4 °F 17.9 °F 23.46 in Calm   -999.0 mph 70% 0.00 in
03:24 26.2 °F 17.7 °F 23.46 in Calm   -999.0 mph 70% 0.00 in
03:39 26.4 °F 15.9 °F 23.45 in Calm   -999.0 mph 64% 0.00 in
03:54 27.3 °F 14.5 °F 23.45 in Calm   -999.0 mph 58% 0.00 in
04:09 26.2 °F 16.7 °F 23.45 in Calm   -999.0 mph 67% 0.00 in
04:24 26.1 °F 18.9 °F 23.45 in Calm   -999.0 mph 74% 0.00 in
04:40 26.6 °F 14.2 °F 23.46 in Calm   -999.0 mph 59% 0.00 in
04:55 25.9 °F 15.7 °F 23.45 in Calm   -999.0 mph 65% 0.00 in
05:10 26.4 °F 14.8 °F 23.45 in Calm   -999.0 mph 61% 0.00 in
05:25 25.9 °F 17.8 °F 23.45 in Calm   -999.0 mph 71% 0.00 in
05:40 26.2 °F 20.0 °F 23.46 in Calm   -999.0 mph 77% 0.00 in
05:56 28.2 °F 15.3 °F 23.46 in Calm   -999.0 mph 58% 0.00 in
06:11 29.1 °F 18.1 °F 23.46 in Calm   -999.0 mph 63% 0.00 in
06:27 32.0 °F 7.4 °F 23.46 in Calm   -999.0 mph 35% 0.00 in
06:43 36.5 °F 6.4 °F 23.47 in WNW 2.2 mph -999.0 mph 28% 0.00 in
06:58 38.7 °F 6.7 °F 23.47 in Calm   -999.0 mph 26% 0.00 in
07:13 39.9 °F 6.9 °F 23.47 in NNW 4.2 mph -999.0 mph 25% 0.00 in
07:28 41.9 °F 6.7 °F 23.48 in NW 2.2 mph -999.0 mph 23% 0.00 in
07:44 45.3 °F 6.5 °F 23.49 in WNW 3.7 mph -999.0 mph 20% 0.00 in
07:59 46.0 °F 8.2 °F 23.49 in West 3.2 mph -999.0 mph 21% 0.00 in
08:14 46.4 °F 7.5 °F 23.49 in West 3.7 mph -999.0 mph 20% 0.00 in
08:29 46.9 °F 11.0 °F 23.50 in NW 3.2 mph -999.0 mph 23% 0.00 in
08:45 46.9 °F 15.5 °F 23.50 in WNW 2.2 mph -999.0 mph 28% 0.00 in
09:00 45.9 °F 14.6 °F 23.50 in North 3.2 mph -999.0 mph 28% 0.00 in
09:16 47.1 °F 16.4 °F 23.50 in WNW 4.2 mph -999.0 mph 29% 0.00 in
09:31 50.0 °F 29.5 °F 23.50 in NW 3.7 mph -999.0 mph 45% 0.00 in
09:47 51.8 °F 33.7 °F 23.51 in Calm   -999.0 mph 50% 0.00 in
10:02 54.0 °F 36.3 °F 23.50 in NW 4.7 mph -999.0 mph 51% 0.00 in
10:17 54.5 °F 36.7 °F 23.50 in WNW 5.8 mph -999.0 mph 51% 0.00 in
10:32 54.7 °F 36.9 °F 23.51 in NNE 4.7 mph -999.0 mph 51% 0.00 in
10:47 54.7 °F 36.9 °F 23.51 in NE 3.2 mph -999.0 mph 51% 0.00 in
11:03 54.3 °F 34.5 °F 23.50 in Calm   -999.0 mph 47% 0.00 in
11:18 54.3 °F 34.5 °F 23.51 in Calm   -999.0 mph 47% 0.00 in
11:33 53.2 °F 32.4 °F 23.51 in SW 2.7 mph -999.0 mph 45% 0.00 in
11:48 54.0 °F 32.6 °F 23.51 in SE 2.7 mph -999.0 mph 44% 0.00 in
12:03 52.7 °F 31.4 °F 23.51 in West 2.7 mph -999.0 mph 44% 0.00 in
12:19 51.4 °F 30.2 °F 23.51 in NW 2.7 mph -999.0 mph 44% 0.00 in
12:34 51.6 °F 29.8 °F 23.51 in Calm   -999.0 mph 43% 0.00 in
12:49 49.8 °F 28.8 °F 23.50 in NNW 1.1 mph -999.0 mph 44% 0.00 in
13:04 50.0 °F 25.4 °F 23.49 in Calm   -999.0 mph 38% 0.00 in
13:20 50.0 °F 22.7 °F 23.48 in WNW 3.7 mph -999.0 mph 34% 0.00 in
13:35 50.4 °F 22.4 °F 23.48 in NW 3.7 mph -999.0 mph 33% 0.00 in
13:50 50.5 °F 23.8 °F 23.48 in SSE 2.7 mph -999.0 mph 35% 0.00 in
14:06 49.8 °F 22.5 °F 23.47 in SSW 1.7 mph -999.0 mph 34% 0.00 in
14:21 48.9 °F 24.4 °F 23.47 in Calm   -999.0 mph 38% 0.00 in
14:36 49.5 °F 24.3 °F 23.47 in Calm   -999.0 mph 37% 0.00 in
14:51 48.2 °F 24.4 °F 23.46 in Calm   -999.0 mph 39% 0.00 in
15:07 48.0 °F 26.6 °F 23.45 in NNW 3.7 mph -999.0 mph 43% 0.00 in
15:22 47.7 °F 27.9 °F 23.45 in Calm   -999.0 mph 46% 0.00 in
15:37 47.3 °F 27.0 °F 23.45 in Calm   -999.0 mph 45% 0.00 in
15:52 46.2 °F 26.0 °F 23.46 in SW 1.7 mph -999.0 mph 45% 0.00 in
16:07 44.8 °F 21.3 °F 23.46 in SSE 4.2 mph -999.0 mph 39% 0.00 in
16:23 43.2 °F 22.7 °F 23.45 in South 3.2 mph -999.0 mph 44% 0.00 in
16:38 42.8 °F 22.9 °F 23.45 in West 4.2 mph -999.0 mph 45% 0.00 in
16:53 43.0 °F 25.6 °F 23.44 in Calm   -999.0 mph 50% 0.00 in
17:08 42.1 °F 25.3 °F 23.44 in Calm   -999.0 mph 51% 0.00 in
17:23 41.2 °F 25.8 °F 23.45 in East 2.7 mph -999.0 mph 54% 0.00 in
17:39 40.3 °F 26.7 °F 23.45 in SW 2.7 mph -999.0 mph 58% 0.00 in
17:54 39.9 °F 27.1 °F 23.45 in Calm   -999.0 mph 60% 0.00 in
18:09 39.7 °F 27.7 °F 23.46 in NNW 6.3 mph -999.0 mph 62% 0.00 in
18:25 39.4 °F 25.8 °F 23.49 in WSW 2.7 mph -999.0 mph 58% 0.00 in
18:40 37.2 °F 29.3 °F 23.48 in NW 4.7 mph -999.0 mph 73% 0.00 in
18:55 36.1 °F 27.9 °F 23.48 in Calm   -999.0 mph 72% 0.00 in
19:10 35.2 °F 27.1 °F 23.47 in Calm   -999.0 mph 72% 0.00 in
19:25 34.9 °F 27.5 °F 23.46 in Calm   -999.0 mph 74% 0.00 in
19:41 36.5 °F 31.5 °F 23.45 in Calm   -999.0 mph 82% 0.00 in
19:56 38.3 °F 34.2 °F 23.45 in Calm   -999.0 mph 85% 0.00 in
20:11 40.5 °F 36.0 °F 23.44 in SSW 3.2 mph -999.0 mph 84% 0.00 in
20:26 41.7 °F 37.2 °F 23.44 in SSW 3.2 mph -999.0 mph 84% 0.00 in
20:41 42.4 °F 37.9 °F 23.44 in SSE 6.8 mph -999.0 mph 84% 0.00 in
20:57 42.6 °F 37.8 °F 23.43 in South 2.2 mph -999.0 mph 83% 0.00 in
21:12 42.6 °F 37.5 °F 23.43 in South 3.7 mph -999.0 mph 82% 0.00 in
21:27 42.8 °F 38.0 °F 23.44 in Calm   -999.0 mph 83% 0.00 in
21:43 42.4 °F 37.9 °F 23.44 in Calm   -999.0 mph 84% 0.00 in
21:58 41.4 °F 38.1 °F 23.44 in SW 4.2 mph -999.0 mph 88% 0.00 in
22:13 40.5 °F 38.1 °F 23.45 in Calm   -999.0 mph 91% 0.00 in
22:28 40.8 °F 39.2 °F 23.42 in SSE 5.8 mph -999.0 mph 94% 0.00 in
22:44 41.4 °F 39.8 °F 23.41 in NW 5.8 mph -999.0 mph 94% 0.00 in
23:00 41.0 °F 39.4 °F 23.41 in WSW 2.7 mph -999.0 mph 94% 0.00 in
23:15 40.8 °F 39.5 °F 23.41 in SSE 3.7 mph -999.0 mph 95% 0.00 in
23:30 41.0 °F 39.7 °F 23.40 in SSE 3.7 mph -999.0 mph 95% 0.00 in
23:45 42.3 °F 40.7 °F 23.38 in SSE 9.4 mph -999.0 mph 94% 0.00 in
Big Bear CA Weather